This is the latest recevied weather packets stored in our database for station/object DB0BQ-11. If no packets are shown the sender has not sent any weather packets the latest 10 day(s).
| Time | Temp. | Humidity | Pressure | Rain* | Wind** | Luminosity | Snow |
|---|---|---|---|---|---|---|---|
| 1777963840 | 12.22° C | 99% | 1009.8 hPa | - | - | - | - |
| 1777960829 | 13.33° C | 99% | 1009.8 hPa | - | - | - | - |
| 1777959625 | 13.33° C | 99% | 1009.7 hPa | - | - | - | - |
| 1777944631 | 13.89° C | 99% | 1010.5 hPa | - | - | - | - |
| 1777941620 | 13.89° C | 99% | 1010.9 hPa | - | - | - | - |
| 1777940416 | 13.89° C | 99% | 1011.1 hPa | - | - | - | - |
| 1777939232 | 13.89° C | 99% | 1011.2 hPa | - | - | - | - |
| 1777938027 | 13.89° C | 99% | 1011.4 hPa | - | - | - | - |
| 1777936823 | 13.89° C | 98% | 1011.6 hPa | - | - | - | - |
| 1777936221 | 13.89° C | 98% | 1011.7 hPa | - | - | - | - |
| 1777932026 | 14.44° C | 98% | 1012.2 hPa | - | - | - | - |
| 1777929055 | 14.44° C | 97% | 1012.5 hPa | - | - | - | - |
| 1777924840 | 15° C | 97% | 1012.5 hPa | - | - | - | - |
| 1777921829 | 15° C | 95% | 1012.2 hPa | - | - | - | - |
| 1777917634 | 15° C | 92% | 1012.1 hPa | - | - | - | - |
| 1777915827 | 15.56° C | 87% | 1012.3 hPa | - | - | - | - |
| 1777912837 | 16.11° C | 86% | 1012.3 hPa | - | - | - | - |
| 1777909826 | 18.33° C | 74% | 1012.3 hPa | - | - | - | - |
| 1777908621 | 18.89° C | 65% | 1012.2 hPa | - | - | - | - |
| 1777908019 | 19.44° C | 64% | 1012.2 hPa | - | - | - | - |
| 1777907457 | 19.44° C | 63% | 1012.1 hPa | - | - | - | - |
| 1777900833 | 19.44° C | 61% | 1012.5 hPa | - | - | - | - |
| 1777888228 | 18.89° C | 64% | 1013 hPa | - | - | - | - |
| 1777887626 | 18.89° C | 65% | 1013 hPa | - | - | - | - |
| 1777887024 | 18.89° C | 66% | 1013 hPa | - | - | - | - |
* Rain since midnight (hover to see other rain measurements)
** Current wind speed in m/s (hover to see current wind gust speed)